sensor_id;sensor_type;location;lat;lon;timestamp;pressure;altitude;pressure_sealevel;temperature;humidity
61026;BME280;46911;32.650;-16.902;2024-02-23T00:00:57;102478.81;;;16.71;75.89
61026;BME280;46911;32.650;-16.902;2024-02-23T00:02:58;102482.94;;;16.77;76.16
61026;BME280;46911;32.650;-16.902;2024-02-23T00:05:04;102468.44;;;16.65;76.43
61026;BME280;46911;32.650;-16.902;2024-02-23T00:07:07;102486.72;;;16.74;76.56
61026;BME280;46911;32.650;-16.902;2024-02-23T00:09:08;102486.81;;;16.73;76.76
61026;BME280;46911;32.650;-16.902;2024-02-23T00:11:09;102482.28;;;16.73;76.80
61026;BME280;46911;32.650;-16.902;2024-02-23T00:13:15;102491.13;;;16.76;76.82
61026;BME280;46911;32.650;-16.902;2024-02-23T00:15:16;102489.59;;;16.71;77.04
61026;BME280;46911;32.650;-16.902;2024-02-23T00:17:17;102479.78;;;16.70;77.15
61026;BME280;46911;32.650;-16.902;2024-02-23T00:19:23;102468.44;;;16.65;77.29
61026;BME280;46911;32.650;-16.902;2024-02-23T00:21:26;102467.06;;;16.72;77.16
61026;BME280;46911;32.650;-16.902;2024-02-23T00:23:27;102461.06;;;16.82;77.00
61026;BME280;46911;32.650;-16.902;2024-02-23T00:25:29;102467.56;;;17.06;76.75
61026;BME280;46911;32.650;-16.902;2024-02-23T00:27:30;102478.78;;;17.13;76.14
61026;BME280;46911;32.650;-16.902;2024-02-23T00:29:33;102461.94;;;17.10;76.04
61026;BME280;46911;32.650;-16.902;2024-02-23T00:31:40;102449.41;;;17.09;76.28
61026;BME280;46911;32.650;-16.902;2024-02-23T00:33:43;102458.28;;;17.23;76.11
61026;BME280;46911;32.650;-16.902;2024-02-23T00:35:46;102422.97;;;17.01;76.06
61026;BME280;46911;32.650;-16.902;2024-02-23T00:37:50;102446.75;;;17.21;76.05
61026;BME280;46911;32.650;-16.902;2024-02-23T00:39:56;102437.34;;;17.14;76.22
61026;BME280;46911;32.650;-16.902;2024-02-23T00:41:59;102453.78;;;17.24;76.30
61026;BME280;46911;32.650;-16.902;2024-02-23T00:44:01;102451.19;;;17.22;76.40
61026;BME280;46911;32.650;-16.902;2024-02-23T00:46:05;102427.75;;;17.10;76.70
61026;BME280;46911;32.650;-16.902;2024-02-23T00:48:06;102458.50;;;17.20;76.90
61026;BME280;46911;32.650;-16.902;2024-02-23T00:50:07;102436.19;;;17.18;77.15
61026;BME280;46911;32.650;-16.902;2024-02-23T00:52:11;102442.34;;;17.20;77.21
61026;BME280;46911;32.650;-16.902;2024-02-23T00:54:12;102432.50;;;17.19;77.45
61026;BME280;46911;32.650;-16.902;2024-02-23T00:56:14;102414.38;;;17.09;77.56
61026;BME280;46911;32.650;-16.902;2024-02-23T00:58:17;102424.19;;;17.10;77.67
61026;BME280;46911;32.650;-16.902;2024-02-23T01:00:22;102445.59;;;17.26;77.56
61026;BME280;46911;32.650;-16.902;2024-02-23T01:02:28;102370.09;;;16.85;77.45
61026;BME280;46911;32.650;-16.902;2024-02-23T01:04:34;102411.69;;;17.09;77.54
61026;BME280;46911;32.650;-16.902;2024-02-23T01:06:35;102416.66;;;17.15;77.90
61026;BME280;46911;32.650;-16.902;2024-02-23T01:08:36;102427.75;;;17.10;78.15
61026;BME280;46911;32.650;-16.902;2024-02-23T01:10:43;102425.50;;;17.04;78.50
61026;BME280;46911;32.650;-16.902;2024-02-23T01:12:46;102413.19;;;17.00;78.83
61026;BME280;46911;32.650;-16.902;2024-02-23T01:14:50;102393.25;;;16.75;79.06
61026;BME280;46911;32.650;-16.902;2024-02-23T01:16:58;102423.22;;;16.83;79.54
61026;BME280;46911;32.650;-16.902;2024-02-23T01:19:02;102411.91;;;16.78;79.67
61026;BME280;46911;32.650;-16.902;2024-02-23T01:21:03;102386.97;;;16.62;80.18
61026;BME280;46911;32.650;-16.902;2024-02-23T01:23:09;102374.09;;;16.52;80.58
61026;BME280;46911;32.650;-16.902;2024-02-23T01:25:15;102386.50;;;16.55;80.78
61026;BME280;46911;32.650;-16.902;2024-02-23T01:27:16;102381.72;;;16.46;80.96
61026;BME280;46911;32.650;-16.902;2024-02-23T01:29:19;102411.63;;;16.55;81.29
61026;BME280;46911;32.650;-16.902;2024-02-23T01:31:22;102405.38;;;16.55;81.61
61026;BME280;46911;32.650;-16.902;2024-02-23T01:33:29;102394.63;;;16.40;81.83
61026;BME280;46911;32.650;-16.902;2024-02-23T01:35:33;102392.72;;;16.43;82.10
61026;BME280;46911;32.650;-16.902;2024-02-23T01:37:34;102384.06;;;16.37;82.21
61026;BME280;46911;32.650;-16.902;2024-02-23T01:39:37;102372.00;;;16.30;82.40
61026;BME280;46911;32.650;-16.902;2024-02-23T01:41:41;102365.63;;;16.31;82.67
61026;BME280;46911;32.650;-16.902;2024-02-23T01:43:45;102385.59;;;16.42;82.79
61026;BME280;46911;32.650;-16.902;2024-02-23T01:45:46;102360.91;;;16.35;82.99
61026;BME280;46911;32.650;-16.902;2024-02-23T01:47:49;102354.09;;;16.29;83.14
61026;BME280;46911;32.650;-16.902;2024-02-23T01:49:53;102375.44;;;16.32;83.56
61026;BME280;46911;32.650;-16.902;2024-02-23T01:51:59;102375.44;;;16.32;83.69
61026;BME280;46911;32.650;-16.902;2024-02-23T01:54:01;102357.41;;;16.20;84.06
61026;BME280;46911;32.650;-16.902;2024-02-23T01:56:08;102377.97;;;16.21;84.31
61026;BME280;46911;32.650;-16.902;2024-02-23T01:58:13;102366.75;;;16.14;84.61
61026;BME280;46911;32.650;-16.902;2024-02-23T02:00:18;102348.78;;;16.00;84.83
61026;BME280;46911;32.650;-16.902;2024-02-23T02:02:29;102378.56;;;16.12;84.99
61026;BME280;46911;32.650;-16.902;2024-02-23T02:04:36;102380.69;;;16.06;85.35
61026;BME280;46911;32.650;-16.902;2024-02-23T02:06:42;102347.69;;;15.90;85.54
61026;BME280;46911;32.650;-16.902;2024-02-23T02:08:45;102365.88;;;15.99;85.61
61026;BME280;46911;32.650;-16.902;2024-02-23T02:10:46;102361.50;;;15.98;85.92
61026;BME280;46911;32.650;-16.902;2024-02-23T02:12:47;102365.50;;;16.05;85.63
61026;BME280;46911;32.650;-16.902;2024-02-23T02:14:48;102356.84;;;16.00;85.72
61026;BME280;46911;32.650;-16.902;2024-02-23T02:16:52;102361.06;;;16.04;85.54
61026;BME280;46911;32.650;-16.902;2024-02-23T02:18:57;102359.28;;;16.05;85.34
61026;BME280;46911;32.650;-16.902;2024-02-23T02:21:01;102340.75;;;15.86;85.44
61026;BME280;46911;32.650;-16.902;2024-02-23T02:23:02;102357.06;;;15.97;85.54
61026;BME280;46911;32.650;-16.902;2024-02-23T02:25:06;102367.63;;;16.00;85.49
61026;BME280;46911;32.650;-16.902;2024-02-23T02:27:07;102353.22;;;15.87;85.50
61026;BME280;46911;32.650;-16.902;2024-02-23T02:29:08;102361.66;;;15.95;85.26
61026;BME280;46911;32.650;-16.902;2024-02-23T02:31:09;102331.25;;;15.80;85.57
61026;BME280;46911;32.650;-16.902;2024-02-23T02:33:15;102357.28;;;15.94;85.41
61026;BME280;46911;32.650;-16.902;2024-02-23T02:35:19;102354.75;;;15.91;85.73
61026;BME280;46911;32.650;-16.902;2024-02-23T02:37:20;102341.91;;;15.82;85.88
61026;BME280;46911;32.650;-16.902;2024-02-23T02:39:21;102346.44;;;15.81;85.80
61026;BME280;46911;32.650;-16.902;2024-02-23T02:41:28;102326.06;;;15.63;86.15
61026;BME280;46911;32.650;-16.902;2024-02-23T02:43:30;102357.63;;;15.73;86.26
61026;BME280;46911;32.650;-16.902;2024-02-23T02:45:37;102355.72;;;15.76;86.28
61026;BME280;46911;32.650;-16.902;2024-02-23T02:47:40;102345.16;;;15.72;86.22
61026;BME280;46911;32.650;-16.902;2024-02-23T02:49:41;102332.38;;;15.62;86.18
61026;BME280;46911;32.650;-16.902;2024-02-23T02:51:47;102345.16;;;15.72;86.25
61026;BME280;46911;32.650;-16.902;2024-02-23T02:53:48;102323.25;;;15.64;86.28
61026;BME280;46911;32.650;-16.902;2024-02-23T02:55:53;102340.66;;;15.73;85.95
61026;BME280;46911;32.650;-16.902;2024-02-23T02:57:57;102333.84;;;15.67;86.25
61026;BME280;46911;32.650;-16.902;2024-02-23T03:00:09;102342.75;;;15.68;86.23
61026;BME280;46911;32.650;-16.902;2024-02-23T03:02:10;102330.22;;;15.54;86.22
61026;BME280;46911;32.650;-16.902;2024-02-23T03:04:14;102318.47;;;15.55;86.19
61026;BME280;46911;32.650;-16.902;2024-02-23T03:06:18;102328.25;;;15.56;86.11
61026;BME280;46911;32.650;-16.902;2024-02-23T03:08:21;102340.19;;;15.66;86.03
61026;BME280;46911;32.650;-16.902;2024-02-23T03:10:25;102341.13;;;15.65;86.15
61026;BME280;46911;32.650;-16.902;2024-02-23T03:12:28;102338.06;;;15.71;85.88
61026;BME280;46911;32.650;-16.902;2024-02-23T03:14:31;102338.06;;;15.71;85.91
61026;BME280;46911;32.650;-16.902;2024-02-23T03:16:38;102341.91;;;15.67;86.08
61026;BME280;46911;32.650;-16.902;2024-02-23T03:18:41;102335.53;;;15.68;86.23
61026;BME280;46911;32.650;-16.902;2024-02-23T03:20:44;102337.59;;;15.65;86.10
61026;BME280;46911;32.650;-16.902;2024-02-23T03:22:45;102328.63;;;15.64;86.23
61026;BME280;46911;32.650;-16.902;2024-02-23T03:24:48;102330.47;;;15.64;86.29
61026;BME280;46911;32.650;-16.902;2024-02-23T03:26:56;102317.31;;;15.59;86.46
61026;BME280;46911;32.650;-16.902;2024-02-23T03:28:59;102305.00;;;15.55;86.62
61026;BME280;46911;32.650;-16.902;2024-02-23T03:31:03;102317.97;;;15.63;86.71
61026;BME280;46911;32.650;-16.902;2024-02-23T03:33:04;102322.31;;;15.65;87.04
61026;BME280;46911;32.650;-16.902;2024-02-23T03:35:08;102315.00;;;15.67;87.07
61026;BME280;46911;32.650;-16.902;2024-02-23T03:37:12;102307.91;;;15.66;87.40
61026;BME280;46911;32.650;-16.902;2024-02-23T03:39:17;102312.69;;;15.61;87.43
61026;BME280;46911;32.650;-16.902;2024-02-23T03:41:17;102311.19;;;15.57;87.65
61026;BME280;46911;32.650;-16.902;2024-02-23T03:43:21;102332.69;;;15.71;87.69
61026;BME280;46911;32.650;-16.902;2024-02-23T03:45:25;102300.41;;;15.57;87.79
61026;BME280;46911;32.650;-16.902;2024-02-23T03:47:28;102334.97;;;15.78;87.88
61026;BME280;46911;32.650;-16.902;2024-02-23T03:49:31;102301.16;;;15.59;87.70
61026;BME280;46911;32.650;-16.902;2024-02-23T03:51:32;102287.34;;;15.51;87.95
61026;BME280;46911;32.650;-16.902;2024-02-23T03:53:35;102314.81;;;15.70;88.18
61026;BME280;46911;32.650;-16.902;2024-02-23T03:55:38;102312.78;;;15.74;88.39
61026;BME280;46911;32.650;-16.902;2024-02-23T03:57:41;102288.75;;;15.71;88.37
61026;BME280;46911;32.650;-16.902;2024-02-23T03:59:54;102317.69;;;15.82;88.39
61026;BME280;46911;32.650;-16.902;2024-02-23T04:01:56;102316.13;;;15.78;88.19
61026;BME280;46911;32.650;-16.902;2024-02-23T04:04:00;102303.84;;;15.73;88.64
61026;BME280;46911;32.650;-16.902;2024-02-23T04:06:03;102309.31;;;15.72;88.94
61026;BME280;46911;32.650;-16.902;2024-02-23T04:08:07;102300.00;;;15.63;89.17
61026;BME280;46911;32.650;-16.902;2024-02-23T04:10:08;102277.53;;;15.50;89.25
61026;BME280;46911;32.650;-16.902;2024-02-23T04:12:13;102271.22;;;15.51;89.88
61026;BME280;46911;32.650;-16.902;2024-02-23T04:14:16;102275.44;;;15.55;89.94
61026;BME280;46911;32.650;-16.902;2024-02-23T04:16:17;102258.34;;;15.56;89.98
61026;BME280;46911;32.650;-16.902;2024-02-23T04:18:20;102287.13;;;15.68;90.26
61026;BME280;46911;32.650;-16.902;2024-02-23T04:20:23;102282.63;;;15.69;90.12
61026;BME280;46911;32.650;-16.902;2024-02-23T04:22:24;102281.47;;;15.73;90.37
61026;BME280;46911;32.650;-16.902;2024-02-23T04:24:25;102271.66;;;15.72;90.45
61026;BME280;46911;32.650;-16.902;2024-02-23T04:26:27;102267.44;;;15.68;90.33
61026;BME280;46911;32.650;-16.902;2024-02-23T04:28:30;102272.13;;;15.79;90.37
61026;BME280;46911;32.650;-16.902;2024-02-23T04:30:34;102257.34;;;15.71;90.48
61026;BME280;46911;32.650;-16.902;2024-02-23T04:32:38;102266.16;;;15.88;90.41
61026;BME280;46911;32.650;-16.902;2024-02-23T04:34:39;102265.00;;;15.92;90.31
61026;BME280;46911;32.650;-16.902;2024-02-23T04:36:42;102237.41;;;15.88;89.86
61026;BME280;46911;32.650;-16.902;2024-02-23T04:38:45;102255.53;;;15.99;89.86
61026;BME280;46911;32.650;-16.902;2024-02-23T04:40:46;102255.38;;;16.02;90.09
61026;BME280;46911;32.650;-16.902;2024-02-23T04:42:47;102261.81;;;16.00;89.92
61026;BME280;46911;32.650;-16.902;2024-02-23T04:44:51;102259.00;;;16.01;90.10
61026;BME280;46911;32.650;-16.902;2024-02-23T04:46:57;102232.47;;;15.82;90.02
61026;BME280;46911;32.650;-16.902;2024-02-23T04:48:58;102191.56;;;15.63;90.38
61026;BME280;46911;32.650;-16.902;2024-02-23T04:51:04;102231.41;;;15.85;90.56
61026;BME280;46911;32.650;-16.902;2024-02-23T04:53:13;102230.72;;;15.81;90.77
61026;BME280;46911;32.650;-16.902;2024-02-23T04:55:16;102249.91;;;15.89;91.07
61026;BME280;46911;32.650;-16.902;2024-02-23T04:57:22;102232.72;;;15.78;90.97
61026;BME280;46911;32.650;-16.902;2024-02-23T04:59:25;102249.06;;;15.89;91.23
61026;BME280;46911;32.650;-16.902;2024-02-23T05:01:26;102232.63;;;15.79;91.27
61026;BME280;46911;32.650;-16.902;2024-02-23T05:03:26;102241.75;;;15.91;91.34
61026;BME280;46911;32.650;-16.902;2024-02-23T05:05:30;102216.44;;;15.81;91.40
61026;BME280;46911;32.650;-16.902;2024-02-23T05:07:34;102220.53;;;15.86;91.27
61026;BME280;46911;32.650;-16.902;2024-02-23T05:09:37;102238.34;;;16.02;91.21
61026;BME280;46911;32.650;-16.902;2024-02-23T05:11:38;102242.97;;;16.00;91.13
61026;BME280;46911;32.650;-16.902;2024-02-23T05:13:41;102236.31;;;16.05;91.04
61026;BME280;46911;32.650;-16.902;2024-02-23T05:15:42;102226.09;;;16.11;90.86
61026;BME280;46911;32.650;-16.902;2024-02-23T05:17:45;102230.84;;;16.20;90.52
61026;BME280;46911;32.650;-16.902;2024-02-23T05:19:46;102199.69;;;16.03;90.44
61026;BME280;46911;32.650;-16.902;2024-02-23T05:21:47;102205.84;;;16.05;90.84
61026;BME280;46911;32.650;-16.902;2024-02-23T05:23:48;102229.91;;;16.21;90.63
61026;BME280;46911;32.650;-16.902;2024-02-23T05:25:53;102211.00;;;16.08;90.59
61026;BME280;46911;32.650;-16.902;2024-02-23T05:27:54;102230.19;;;16.16;90.75
61026;BME280;46911;32.650;-16.902;2024-02-23T05:29:55;102239.16;;;16.17;90.71
61026;BME280;46911;32.650;-16.902;2024-02-23T05:32:00;102230.31;;;16.15;90.90
61026;BME280;46911;32.650;-16.902;2024-02-23T05:34:04;102216.78;;;16.02;90.94
61026;BME280;46911;32.650;-16.902;2024-02-23T05:36:05;102222.97;;;16.04;90.77
61026;BME280;46911;32.650;-16.902;2024-02-23T05:38:08;102229.97;;;16.06;90.86
61026;BME280;46911;32.650;-16.902;2024-02-23T05:40:09;102240.28;;;16.13;91.03
61026;BME280;46911;32.650;-16.902;2024-02-23T05:42:18;102218.84;;;15.98;90.78
61026;BME280;46911;32.650;-16.902;2024-02-23T05:44:22;102245.50;;;16.16;90.83
61026;BME280;46911;32.650;-16.902;2024-02-23T05:46:26;102226.09;;;16.11;90.60
61026;BME280;46911;32.650;-16.902;2024-02-23T05:48:31;102214.78;;;16.05;90.35
61026;BME280;46911;32.650;-16.902;2024-02-23T05:50:34;102205.19;;;16.01;90.27
61026;BME280;46911;32.650;-16.902;2024-02-23T05:52:40;102218.25;;;16.08;90.29
61026;BME280;46911;32.650;-16.902;2024-02-23T05:54:46;102234.06;;;16.12;90.16
61026;BME280;46911;32.650;-16.902;2024-02-23T05:56:47;102229.63;;;16.11;90.00
61026;BME280;46911;32.650;-16.902;2024-02-23T05:58:48;102209.25;;;15.94;90.05
61026;BME280;46911;32.650;-16.902;2024-02-23T06:00:51;102223.91;;;16.03;89.82
61026;BME280;46911;32.650;-16.902;2024-02-23T06:02:52;102242.75;;;16.03;89.69
61026;BME280;46911;32.650;-16.902;2024-02-23T06:04:55;102245.44;;;16.03;89.48
61026;BME280;46911;32.650;-16.902;2024-02-23T06:06:58;102231.25;;;16.01;89.01
61026;BME280;46911;32.650;-16.902;2024-02-23T06:09:04;102226.25;;;15.95;88.82
61026;BME280;46911;32.650;-16.902;2024-02-23T06:11:09;102243.31;;;16.08;88.05
61026;BME280;46911;32.650;-16.902;2024-02-23T06:13:10;102219.16;;;15.94;87.81
61026;BME280;46911;32.650;-16.902;2024-02-23T06:15:11;102243.22;;;16.10;86.99
61026;BME280;46911;32.650;-16.902;2024-02-23T06:17:18;102221.31;;;16.01;86.25
61026;BME280;46911;32.650;-16.902;2024-02-23T06:19:22;102238.16;;;16.18;84.88
61026;BME280;46911;32.650;-16.902;2024-02-23T06:21:25;102248.09;;;16.17;84.42
61026;BME280;46911;32.650;-16.902;2024-02-23T06:23:34;102244.72;;;16.14;83.54
61026;BME280;46911;32.650;-16.902;2024-02-23T06:25:37;102241.19;;;16.13;83.28
61026;BME280;46911;32.650;-16.902;2024-02-23T06:27:40;102235.91;;;16.12;82.94
61026;BME280;46911;32.650;-16.902;2024-02-23T06:29:43;102241.47;;;16.09;82.40
61026;BME280;46911;32.650;-16.902;2024-02-23T06:31:44;102225.41;;;15.94;82.04
61026;BME280;46911;32.650;-16.902;2024-02-23T06:33:51;102236.72;;;15.99;82.17
61026;BME280;46911;32.650;-16.902;2024-02-23T06:35:55;102230.56;;;15.97;82.05
61026;BME280;46911;32.650;-16.902;2024-02-23T06:37:58;102238.19;;;15.90;82.03
61026;BME280;46911;32.650;-16.902;2024-02-23T06:39:59;102213.03;;;15.77;81.87
61026;BME280;46911;32.650;-16.902;2024-02-23T06:42:05;102216.56;;;15.78;81.85
61026;BME280;46911;32.650;-16.902;2024-02-23T06:44:05;102213.75;;;15.81;81.17
61026;BME280;46911;32.650;-16.902;2024-02-23T06:46:07;102224.06;;;15.87;81.29
61026;BME280;46911;32.650;-16.902;2024-02-23T06:48:14;102231.19;;;15.88;81.49
61026;BME280;46911;32.650;-16.902;2024-02-23T06:50:17;102188.41;;;15.56;81.39
61026;BME280;46911;32.650;-16.902;2024-02-23T06:52:20;102245.81;;;15.84;81.49
61026;BME280;46911;32.650;-16.902;2024-02-23T06:54:21;102237.75;;;15.69;81.56
61026;BME280;46911;32.650;-16.902;2024-02-23T06:56:28;102252.44;;;15.78;81.56
61026;BME280;46911;32.650;-16.902;2024-02-23T06:58:34;102272.22;;;15.77;81.53
61026;BME280;46911;32.650;-16.902;2024-02-23T07:00:38;102257.34;;;15.71;81.41
61026;BME280;46911;32.650;-16.902;2024-02-23T07:02:41;102275.03;;;15.90;81.23
61026;BME280;46911;32.650;-16.902;2024-02-23T07:04:45;102253.03;;;15.83;80.98
61026;BME280;46911;32.650;-16.902;2024-02-23T07:06:49;102268.59;;;16.05;80.58
61026;BME280;46911;32.650;-16.902;2024-02-23T07:08:52;102249.19;;;16.00;80.02
61026;BME280;46911;32.650;-16.902;2024-02-23T07:10:55;102267.31;;;16.11;79.83
61026;BME280;46911;32.650;-16.902;2024-02-23T07:13:01;102274.16;;;16.17;79.24
61026;BME280;46911;32.650;-16.902;2024-02-23T07:15:02;102271.03;;;16.23;78.51
61026;BME280;46911;32.650;-16.902;2024-02-23T07:17:05;102261.84;;;16.13;78.36
61026;BME280;46911;32.650;-16.902;2024-02-23T07:19:07;102267.88;;;16.16;78.33
61026;BME280;46911;32.650;-16.902;2024-02-23T07:21:11;102290.94;;;16.20;78.22
61026;BME280;46911;32.650;-16.902;2024-02-23T07:23:11;102264.75;;;16.10;78.27
61026;BME280;46911;32.650;-16.902;2024-02-23T07:25:19;102278.25;;;16.22;77.93
61026;BME280;46911;32.650;-16.902;2024-02-23T07:27:21;102284.59;;;16.21;77.88
61026;BME280;46911;32.650;-16.902;2024-02-23T07:29:24;102278.38;;;16.21;77.95
61026;BME280;46911;32.650;-16.902;2024-02-23T07:31:25;102281.69;;;16.24;77.01
61026;BME280;46911;32.650;-16.902;2024-02-23T07:33:28;102284.09;;;16.29;76.78
61026;BME280;46911;32.650;-16.902;2024-02-23T07:35:31;102277.38;;;16.22;77.79
61026;BME280;46911;32.650;-16.902;2024-02-23T07:37:36;102286.34;;;16.22;77.79
61026;BME280;46911;32.650;-16.902;2024-02-23T07:39:37;102291.81;;;16.21;78.06
61026;BME280;46911;32.650;-16.902;2024-02-23T07:41:38;102297.94;;;16.23;77.09
61026;BME280;46911;32.650;-16.902;2024-02-23T07:43:41;102295.69;;;16.17;76.18
61026;BME280;46911;32.650;-16.902;2024-02-23T07:45:42;102286.59;;;16.05;76.04
61026;BME280;46911;32.650;-16.902;2024-02-23T07:47:43;102299.53;;;16.13;75.95
61026;BME280;46911;32.650;-16.902;2024-02-23T07:49:44;102316.09;;;16.06;76.18
61026;BME280;46911;32.650;-16.902;2024-02-23T07:51:48;102326.75;;;16.08;76.11
61026;BME280;46911;32.650;-16.902;2024-02-23T07:53:52;102330.22;;;16.10;76.00
61026;BME280;46911;32.650;-16.902;2024-02-23T07:55:56;102328.94;;;16.16;75.81
61026;BME280;46911;32.650;-16.902;2024-02-23T07:58:02;102328.00;;;16.17;75.91
61026;BME280;46911;32.650;-16.902;2024-02-23T08:00:03;102313.19;;;16.10;75.96
61026;BME280;46911;32.650;-16.902;2024-02-23T08:02:12;102330.25;;;16.23;75.14
61026;BME280;46911;32.650;-16.902;2024-02-23T08:04:18;102338.69;;;16.31;74.77
61026;BME280;46911;32.650;-16.902;2024-02-23T08:06:23;102331.28;;;16.35;74.15
61026;BME280;46911;32.650;-16.902;2024-02-23T08:08:26;102329.38;;;16.50;73.61
61026;BME280;46911;32.650;-16.902;2024-02-23T08:10:30;102318.59;;;16.37;73.35
61026;BME280;46911;32.650;-16.902;2024-02-23T08:12:33;102306.38;;;16.31;73.19
61026;BME280;46911;32.650;-16.902;2024-02-23T08:14:34;102336.94;;;16.57;70.74
61026;BME280;46911;32.650;-16.902;2024-02-23T08:16:35;102338.25;;;16.65;69.80
61026;BME280;46911;32.650;-16.902;2024-02-23T08:18:36;102332.00;;;16.64;68.63
61026;BME280;46911;32.650;-16.902;2024-02-23T08:20:37;102332.22;;;16.74;68.79
61026;BME280;46911;32.650;-16.902;2024-02-23T08:22:40;102315.88;;;16.77;68.39
61026;BME280;46911;32.650;-16.902;2024-02-23T08:24:46;102343.63;;;16.92;68.53
61026;BME280;46911;32.650;-16.902;2024-02-23T08:26:46;102352.88;;;17.01;68.43
61026;BME280;46911;32.650;-16.902;2024-02-23T08:28:51;102344.28;;;16.96;67.76
61026;BME280;46911;32.650;-16.902;2024-02-23T08:30:54;102341.66;;;16.94;67.61
61026;BME280;46911;32.650;-16.902;2024-02-23T08:32:58;102359.81;;;17.18;67.08
61026;BME280;46911;32.650;-16.902;2024-02-23T08:34:59;102376.75;;;17.33;67.18
61026;BME280;46911;32.650;-16.902;2024-02-23T08:37:00;102376.88;;;17.44;66.70
61026;BME280;46911;32.650;-16.902;2024-02-23T08:39:02;102355.41;;;17.43;66.50
61026;BME280;46911;32.650;-16.902;2024-02-23T08:41:10;102370.34;;;17.60;66.01
61026;BME280;46911;32.650;-16.902;2024-02-23T08:43:13;102346.97;;;17.47;65.81
61026;BME280;46911;32.650;-16.902;2024-02-23T08:45:17;102366.38;;;17.65;65.84
61026;BME280;46911;32.650;-16.902;2024-02-23T08:47:22;102382.13;;;17.71;66.27
61026;BME280;46911;32.650;-16.902;2024-02-23T08:49:28;102357.53;;;17.63;67.04
61026;BME280;46911;32.650;-16.902;2024-02-23T08:51:29;102368.63;;;17.71;67.64
61026;BME280;46911;32.650;-16.902;2024-02-23T08:53:35;102371.53;;;17.81;67.50
61026;BME280;46911;32.650;-16.902;2024-02-23T08:55:36;102367.41;;;17.88;67.09
61026;BME280;46911;32.650;-16.902;2024-02-23T08:57:37;102397.41;;;18.10;66.62
61026;BME280;46911;32.650;-16.902;2024-02-23T08:59:40;102402.56;;;18.13;64.95
61026;BME280;46911;32.650;-16.902;2024-02-23T09:01:44;102383.22;;;18.19;63.52
61026;BME280;46911;32.650;-16.902;2024-02-23T09:03:47;102377.31;;;18.14;63.50
61026;BME280;46911;32.650;-16.902;2024-02-23T09:05:50;102371.06;;;18.13;63.46
61026;BME280;46911;32.650;-16.902;2024-02-23T09:07:51;102390.78;;;18.27;63.69
61026;BME280;46911;32.650;-16.902;2024-02-23T09:09:58;102366.91;;;18.20;63.99
61026;BME280;46911;32.650;-16.902;2024-02-23T09:12:01;102367.06;;;18.30;63.86
61026;BME280;46911;32.650;-16.902;2024-02-23T09:14:02;102397.38;;;18.47;63.49
61026;BME280;46911;32.650;-16.902;2024-02-23T09:16:05;102397.28;;;18.48;63.95
61026;BME280;46911;32.650;-16.902;2024-02-23T09:18:09;102397.47;;;18.45;64.06
61026;BME280;46911;32.650;-16.902;2024-02-23T09:20:11;102408.47;;;18.55;63.84
61026;BME280;46911;32.650;-16.902;2024-02-23T09:22:12;102392.84;;;18.47;63.86
61026;BME280;46911;32.650;-16.902;2024-02-23T09:24:16;102416.88;;;18.63;64.26
61026;BME280;46911;32.650;-16.902;2024-02-23T09:26:19;102407.31;;;18.70;64.01
61026;BME280;46911;32.650;-16.902;2024-02-23T09:28:22;102405.88;;;18.78;64.52
61026;BME280;46911;32.650;-16.902;2024-02-23T09:30:25;102407.25;;;18.83;64.82
61026;BME280;46911;32.650;-16.902;2024-02-23T09:32:28;102414.09;;;19.00;64.69
61026;BME280;46911;32.650;-16.902;2024-02-23T09:34:31;102401.56;;;18.99;65.14
61026;BME280;46911;32.650;-16.902;2024-02-23T09:36:32;102416.38;;;19.29;64.89
61026;BME280;46911;32.650;-16.902;2024-02-23T09:38:35;102402.38;;;19.35;65.10
61026;BME280;46911;32.650;-16.902;2024-02-23T09:40:37;102402.13;;;19.38;66.33
61026;BME280;46911;32.650;-16.902;2024-02-23T09:42:43;102420.25;;;19.61;66.75
61026;BME280;46911;32.650;-16.902;2024-02-23T09:44:58;102405.59;;;19.40;67.25
61026;BME280;46911;32.650;-16.902;2024-02-23T09:47:03;102427.00;;;19.66;67.07
61026;BME280;46911;32.650;-16.902;2024-02-23T09:49:19;102435.63;;;20.05;66.01
61026;BME280;46911;32.650;-16.902;2024-02-23T09:51:24;102421.38;;;20.70;65.10
61026;BME280;46911;32.650;-16.902;2024-02-23T09:53:26;102448.34;;;22.08;61.99
61026;BME280;46911;32.650;-16.902;2024-02-23T09:55:29;102445.50;;;22.60;58.22
61026;BME280;46911;32.650;-16.902;2024-02-23T09:57:30;102442.34;;;23.33;57.62
61026;BME280;46911;32.650;-16.902;2024-02-23T09:59:31;102444.84;;;24.02;55.23
61026;BME280;46911;32.650;-16.902;2024-02-23T10:01:34;102439.16;;;25.13;52.52
61026;BME280;46911;32.650;-16.902;2024-02-23T10:03:38;102434.47;;;25.76;49.19
61026;BME280;46911;32.650;-16.902;2024-02-23T10:05:40;102422.28;;;25.62;48.72
61026;BME280;46911;32.650;-16.902;2024-02-23T10:07:44;102437.94;;;26.29;48.51
61026;BME280;46911;32.650;-16.902;2024-02-23T10:09:47;102422.41;;;25.87;48.34
61026;BME280;46911;32.650;-16.902;2024-02-23T10:11:54;102441.19;;;26.25;47.96
61026;BME280;46911;32.650;-16.902;2024-02-23T10:13:55;102435.84;;;25.46;49.70
61026;BME280;46911;32.650;-16.902;2024-02-23T10:15:56;102427.16;;;25.50;48.80
61026;BME280;46911;32.650;-16.902;2024-02-23T10:17:57;102419.50;;;26.31;47.59
61026;BME280;46911;32.650;-16.902;2024-02-23T10:20:03;102431.53;;;27.54;44.90
61026;BME280;46911;32.650;-16.902;2024-02-23T10:22:05;102428.41;;;26.42;46.79
61026;BME280;46911;32.650;-16.902;2024-02-23T10:24:06;102427.50;;;26.16;46.55
61026;BME280;46911;32.650;-16.902;2024-02-23T10:26:07;102438.38;;;26.08;47.86
61026;BME280;46911;32.650;-16.902;2024-02-23T10:28:08;102444.91;;;26.83;46.27